Cloverdale, OR (97112)

7:37 AM PDT on July 29, 2015 (GMT -0700)
APRSWXNET | | Change Station
CLOSE
Current Station
Personal Weather Station
Location: Pacific City, OR
Elevation: 27 ft
Nearby Weather Stations

Elev 27 ft 45.20 °N, 123.97 °W | Updated 18 minutes ago

Partly Cloudy
Partly Cloudy
57 °F
Feels Like 57 °F
N
1
Wind Variable Wind from ENE
Gusts 3.0 mph

Today
High -- | Low -- °F
--% Chance of Precip.
Yesterday
High -- | Low -- °F
Precip. -- in
5:56 AM 8:46 PM
Waxing Gibbous, 95% visible
Pressure 30.13 in
Visibility 1.5 miles
Clouds
Dew Point 55 °F
Humidity 94%
Rainfall in
Snow Depth Not available.
UV Not available.
Pollen 4.90 out of 12
Air Quality Not available.
Flu Activity Not available.
METAR KTMK 291415Z AUTO 17003KT 1 1/2SM BR VV007 10/10 A3013 RMK AO2 VIS 1/4V5

More Conditions Fewer Conditions

Pressure 30.13 in
Visibility 1.5 miles
Clouds
Dew Point 55 °F
Humidity 94%
Rainfall in
Snow Depth Not available.
UV Not available.
Pollen 4.90 out of 12
Air Quality Not available.
Flu Activity Not available.
METAR KTMK 291415Z AUTO 17003KT 1 1/2SM BR VV007 10/10 A3013 RMK AO2 VIS 1/4V5

More Conditions Fewer Conditions

10-Day Weather Forecast

×

Almanac

Astronomy

Jul. 29, 2015 Rise Set
Actual Time
Civil Twilight
Nautical Twilight
Astronomical Twilight
Moon
Length of Visible Light
Length of Day
Tomorrow will be .
, % of the Moon is Illuminated

Today's Extremes

State Highs State Lows

Community

WunderPhotos

Upload Photos

1,842,114 photos uploaded!

WunderBlogs® & News

Nearby

Air Quality

  Air Quality AQ Index Pollutant
Not available.

Snow Depth

Station Depth Elevation

Earthquake Activity

City Distance Mag. Time & Date
Minimum magnitude displayed is 2.5.

Coastal Water Temperatures

Place Temperature

Stations

Nearby Weather Stations

Station Location Temp. Windchill Dew Point Humidity Wind Precip. Elev Updated Type